Time;durP1;ratioP1;P1;durP2;ratioP2;P2;SDS_P1;SDS_P2;PMS_P1;PMS_P2;Temp;Humidity;BMP_temperature;BMP_pressure;BME280_temperature;BME280_humidity;BME280_pressure;Samples;Min_cycle;Max_cycle;Signal;HPM_P1;HPM_P2
2023/05/11 00:00:33;;;;;;;1.90;0.97;;;;;;;11.91;100.00;97964.03;5069258;28;20211;-75
2023/05/11 00:02:59;;;;;;;0.90;0.90;;;;;;;11.87;100.00;97981.13;5069368;28;20233;-75
2023/05/11 00:05:26;;;;;;;2.87;1.00;;;;;;;11.85;100.00;97978.59;5072155;28;20210;-75
2023/05/11 00:07:53;;;;;;;0.90;0.90;;;;;;;11.81;100.00;97971.84;5072178;28;20211;-75
2023/05/11 00:10:19;;;;;;;0.90;0.90;;;;;;;11.85;100.00;97969.81;5072073;28;20278;-75
2023/05/11 00:12:47;;;;;;;1.57;1.00;;;;;;;11.83;100.00;97958.50;5072052;28;20711;-75
2023/05/11 00:15:14;;;;;;;2.33;0.90;;;;;;;11.84;100.00;97970.75;5072172;28;20707;-75
2023/05/11 00:17:40;;;;;;;2.00;0.90;;;;;;;11.84;100.00;97968.97;5071972;28;20214;-76
2023/05/11 00:20:08;;;;;;;2.10;0.83;;;;;;;11.81;100.00;97960.44;5071585;28;20208;-75
2023/05/11 00:22:35;;;;;;;1.60;1.00;;;;;;;11.74;100.00;97960.03;5071763;28;20237;-75
2023/05/11 00:25:01;;;;;;;1.90;1.00;;;;;;;11.72;100.00;97961.13;5072073;28;20218;-75
2023/05/11 00:27:28;;;;;;;1.03;1.00;;;;;;;11.68;100.00;97959.69;5071549;28;20217;-75
2023/05/11 00:29:55;;;;;;;1.10;1.00;;;;;;;11.69;100.00;97962.19;5071558;28;20208;-75
2023/05/11 00:32:22;;;;;;;1.37;1.03;;;;;;;11.70;100.00;97963.03;5071599;28;20232;-75
2023/05/11 00:34:48;;;;;;;1.03;0.90;;;;;;;11.70;100.00;97955.97;5071656;28;20222;-75
2023/05/11 00:37:15;;;;;;;1.83;0.90;;;;;;;11.73;100.00;97958.34;5071821;28;20211;-76
2023/05/11 00:39:41;;;;;;;1.17;0.80;;;;;;;11.72;100.00;97959.31;5071426;28;20215;-75
2023/05/11 00:42:08;;;;;;;1.03;1.00;;;;;;;11.73;100.00;97957.53;5071590;28;20234;-75
2023/05/11 00:44:34;;;;;;;2.00;1.10;;;;;;;11.73;100.00;97957.53;5071635;28;20606;-75
2023/05/11 00:47:02;;;;;;;1.10;0.90;;;;;;;11.70;100.00;97957.75;5071494;28;20244;-75
2023/05/11 00:49:30;;;;;;;0.83;0.80;;;;;;;11.68;100.00;97954.38;5071318;28;20265;-75
2023/05/11 00:51:56;;;;;;;1.27;0.80;;;;;;;11.70;100.00;97955.97;5071393;28;20217;-75
2023/05/11 00:54:23;;;;;;;1.00;0.80;;;;;;;11.69;100.00;97956.06;5071457;28;20203;-75
2023/05/11 00:56:50;;;;;;;0.80;0.80;;;;;;;11.70;100.00;97955.09;5071397;28;20203;-75
2023/05/11 00:59:17;;;;;;;1.07;0.90;;;;;;;11.73;100.00;97953.06;5070411;28;20263;-75
2023/05/11 01:01:43;;;;;;;1.00;0.93;;;;;;;11.74;100.00;97954.75;5070457;28;20203;-75
2023/05/11 01:04:11;;;;;;;1.30;0.90;;;;;;;11.82;100.00;97956.81;5069379;28;20239;-75
2023/05/11 01:06:49;;;;;;;0.70;0.70;;;;;;;11.82;100.00;97957.66;5068306;28;20214;-75
2023/05/11 01:09:31;;;;;;;1.13;0.97;;;;;;;11.84;100.00;97961.03;5068232;28;20210;-75
2023/05/11 01:12:07;;;;;;;1.30;1.00;;;;;;;11.84;100.00;97954.88;5068784;28;20216;-76
2023/05/11 01:14:37;;;;;;;1.27;0.80;;;;;;;11.82;100.00;97962.09;5071360;28;20207;-75
2023/05/11 01:17:10;;;;;;;0.90;0.90;;;;;;;11.76;100.00;97963.44;5071233;28;20229;-75
2023/05/11 01:19:46;;;;;;;1.20;1.10;;;;;;;11.73;100.00;97958.34;5070953;28;20215;-75
2023/05/11 01:22:27;;;;;;;0.93;0.93;;;;;;;11.70;100.00;97957.75;5071037;28;20217;-75
2023/05/11 01:25:06;;;;;;;0.80;0.80;;;;;;;11.70;100.00;97958.59;5070860;28;20231;-75
2023/05/11 01:27:56;;;;;;;1.63;0.90;;;;;;;11.74;100.00;97956.56;5071018;28;20313;-75
2023/05/11 01:30:35;;;;;;;0.90;0.90;;;;;;;11.73;100.00;97950.41;5070708;28;20230;-75
2023/05/11 01:33:07;;;;;;;0.80;0.80;;;;;;;11.71;100.00;97948.84;5070843;28;20227;-75
2023/05/11 01:35:37;;;;;;;0.77;0.77;;;;;;;11.71;100.00;97946.19;5071152;28;20210;-75
2023/05/11 01:38:10;;;;;;;0.97;0.90;;;;;;;11.77;100.00;97948.38;5070917;28;20207;-75
2023/05/11 01:40:38;;;;;;;2.03;1.00;;;;;;;11.80;100.00;97945.50;5073770;28;20215;-74
2023/05/11 01:43:07;;;;;;;2.07;1.37;;;;;;;11.80;100.00;97942.84;5074967;28;20670;-75
2023/05/11 01:45:38;;;;;;;2.83;1.00;;;;;;;11.80;100.00;97940.22;5075005;28;20599;-74
2023/05/11 01:48:07;;;;;;;1.23;0.87;;;;;;;11.76;100.00;97941.41;5075387;28;20214;-74
2023/05/11 01:50:36;;;;;;;0.80;0.80;;;;;;;11.79;100.00;97946.47;5074763;28;20203;-75
2023/05/11 01:53:03;;;;;;;0.80;0.80;;;;;;;11.79;100.00;97946.47;5074958;28;20230;-75
2023/05/11 01:55:33;;;;;;;2.10;1.23;;;;;;;11.78;100.00;97944.75;5074693;28;20690;-75
2023/05/11 01:58:02;;;;;;;1.13;1.03;;;;;;;11.82;100.00;97951.50;5074750;28;20207;-74
2023/05/11 02:00:28;;;;;;;2.83;1.00;;;;;;;11.88;100.00;97941.31;5074656;28;20207;-75
2023/05/11 02:02:58;;;;;;;0.97;0.87;;;;;;;11.88;100.00;97945.75;5074579;28;20621;-74
2023/05/11 02:05:26;;;;;;;1.47;1.20;;;;;;;11.83;100.00;97943.47;5074528;28;20305;-75
2023/05/11 02:07:54;;;;;;;1.73;0.80;;;;;;;11.86;100.00;97947.69;5074618;28;20203;-76
2023/05/11 02:10:25;;;;;;;1.40;1.00;;;;;;;11.88;100.00;97945.75;5074205;28;20211;-75
2023/05/11 02:12:53;;;;;;;1.27;1.17;;;;;;;11.88;100.00;97945.75;5074303;28;20245;-75
2023/05/11 02:15:21;;;;;;;1.10;1.00;;;;;;;11.87;100.00;97944.06;5074573;28;20421;-75
2023/05/11 02:17:48;;;;;;;1.33;1.10;;;;;;;11.87;100.00;97942.25;5074659;28;20230;-76
2023/05/11 02:20:18;;;;;;;1.80;1.07;;;;;;;11.91;100.00;97956.09;5074056;28;20207;-75
2023/05/11 02:22:45;;;;;;;1.00;0.90;;;;;;;11.91;100.00;97954.28;5074209;28;20227;-76
2023/05/11 02:25:13;;;;;;;1.70;0.73;;;;;;;11.90;100.00;97954.41;5074188;28;20237;-75
2023/05/11 02:27:40;;;;;;;1.83;1.10;;;;;;;11.90;100.00;97949.97;5074372;28;20215;-75
2023/05/11 02:30:07;;;;;;;3.23;0.90;;;;;;;11.95;100.00;97946.97;5073918;28;20207;-74
2023/05/11 02:32:37;;;;;;;1.20;1.00;;;;;;;11.93;100.00;97948.88;5074075;28;20237;-75
2023/05/11 02:35:07;;;;;;;1.23;1.13;;;;;;;11.97;100.00;97945.88;5074034;28;20205;-75
2023/05/11 02:37:41;;;;;;;1.20;0.93;;;;;;;11.96;100.00;97951.28;5074064;28;20551;-75
2023/05/11 02:40:15;;;;;;;1.27;1.10;;;;;;;11.94;100.00;97950.56;5073964;28;20210;-75
2023/05/11 02:42:43;;;;;;;1.57;0.90;;;;;;;11.91;100.00;97945.50;5073942;28;20250;-75
2023/05/11 02:45:11;;;;;;;2.17;0.90;;;;;;;11.92;100.00;97952.50;5073797;28;20231;-75
2023/05/11 02:47:42;;;;;;;1.73;1.20;;;;;;;11.89;100.00;97947.44;5073816;28;20685;-75
2023/05/11 02:50:09;;;;;;;1.47;1.00;;;;;;;11.87;100.00;97949.38;5073175;28;20208;-75
2023/05/11 02:52:41;;;;;;;1.23;0.90;;;;;;;11.86;100.00;97952.97;5073647;28;20227;-75
2023/05/11 02:55:09;;;;;;;1.03;0.80;;;;;;;11.88;100.00;97945.75;5073940;28;20295;-75
2023/05/11 02:57:36;;;;;;;1.00;0.80;;;;;;;11.90;100.00;97954.41;5073529;28;20700;-75
2023/05/11 03:00:03;;;;;;;1.10;1.00;;;;;;;11.87;100.00;97944.91;5073212;28;20784;-75
2023/05/11 03:04:57;;;;;;;2.60;1.20;;;;;;;11.87;100.00;97938.78;5052795;28;20235;-79
2023/05/11 03:07:23;;;;;;;2.53;1.10;;;;;;;11.89;100.00;97936.84;5054291;28;20209;-80
2023/05/11 03:09:52;;;;;;;1.37;1.20;;;;;;;11.89;100.00;97942.13;5053913;28;20214;-80
2023/05/11 03:12:20;;;;;;;1.30;1.10;;;;;;;11.82;100.00;97931.19;5054374;28;20222;-79
2023/05/11 03:14:48;;;;;;;1.40;1.20;;;;;;;11.80;100.00;97932.25;5034201;28;20584;-80
2023/05/11 03:17:15;;;;;;;1.23;1.07;;;;;;;11.81;100.00;97937.41;5034426;28;20220;-80
2023/05/11 03:19:43;;;;;;;1.93;1.10;;;;;;;11.83;100.00;97937.31;5034379;28;20431;-80
2023/05/11 03:22:10;;;;;;;1.70;1.27;;;;;;;11.85;100.00;97935.38;5034246;28;20221;-80
2023/05/11 03:24:38;;;;;;;1.70;1.10;;;;;;;11.84;100.00;97937.19;5033961;28;20247;-80
2023/05/11 03:27:08;;;;;;;1.10;1.00;;;;;;;11.83;100.00;97934.66;5034480;28;20215;-80
2023/05/11 03:29:38;;;;;;;1.23;1.10;;;;;;;11.82;100.00;97938.28;5033556;28;20218;-80
2023/05/11 03:32:05;;;;;;;1.47;1.37;;;;;;;11.81;100.00;97928.66;5033903;28;20215;-80
2023/05/11 03:34:32;;;;;;;1.90;1.30;;;;;;;11.83;100.00;97930.22;5034094;28;20229;-80
2023/05/11 03:37:00;;;;;;;2.20;1.13;;;;;;;11.88;100.00;97927.22;5034115;28;20218;-80
2023/05/11 03:39:29;;;;;;;1.33;1.10;;;;;;;11.90;100.00;97930.56;5033710;28;20213;-80
2023/05/11 03:41:56;;;;;;;1.20;1.10;;;;;;;11.90;100.00;97925.28;5033889;28;20213;-80
2023/05/11 03:44:25;;;;;;;1.87;0.90;;;;;;;11.93;100.00;97931.19;5033307;28;20239;-80
2023/05/11 03:46:54;;;;;;;2.00;1.30;;;;;;;11.92;100.00;97932.16;5033786;28;20224;-80
2023/05/11 03:49:21;;;;;;;1.13;1.07;;;;;;;11.94;100.00;97926.72;5033177;28;20590;-80
2023/05/11 03:51:48;;;;;;;2.03;1.20;;;;;;;11.92;100.00;97932.16;5033107;28;20215;-79
2023/05/11 03:54:15;;;;;;;1.53;1.33;;;;;;;11.90;100.00;97923.47;5033620;28;20233;-80
2023/05/11 03:56:41;;;;;;;1.97;1.23;;;;;;;11.92;100.00;97923.38;5033429;28;20217;-80
2023/05/11 03:59:08;;;;;;;1.73;1.20;;;;;;;11.90;100.00;97922.63;5033394;28;20601;-80
2023/05/11 04:01:36;;;;;;;2.17;1.00;;;;;;;11.89;100.00;97924.44;5033358;28;20212;-80
2023/05/11 04:04:03;;;;;;;1.30;1.20;;;;;;;11.88;100.00;97924.56;5032258;28;20714;-80
2023/05/11 04:06:30;;;;;;;3.17;1.30;;;;;;;11.89;100.00;97920.94;5032871;28;20619;-80
2023/05/11 04:08:56;;;;;;;1.10;0.97;;;;;;;11.93;100.00;97922.41;5032762;28;20227;-80
2023/05/11 04:11:23;;;;;;;1.50;1.00;;;;;;;11.95;100.00;97918.69;5032427;28;20234;-80
2023/05/11 04:13:49;;;;;;;2.17;1.20;;;;;;;11.92;100.00;97920.72;5032648;28;20235;-80
2023/05/11 04:16:16;;;;;;;1.20;1.10;;;;;;;11.91;100.00;97916.38;5032698;28;20232;-80
2023/05/11 04:18:44;;;;;;;1.37;1.20;;;;;;;11.90;100.00;97917.34;5032627;28;20209;-80
2023/05/11 04:21:10;;;;;;;1.70;0.93;;;;;;;11.93;100.00;97917.13;5032138;28;20208;-80
2023/05/11 04:23:37;;;;;;;1.33;1.23;;;;;;;11.88;100.00;97911.31;5033341;28;20248;-79
2023/05/11 04:26:03;;;;;;;1.00;1.00;;;;;;;11.88;100.00;97919.28;5035582;28;20302;-79
2023/05/11 04:28:30;;;;;;;3.97;1.13;;;;;;;11.87;100.00;97925.53;5036489;28;20236;-79
2023/05/11 04:30:57;;;;;;;2.67;1.03;;;;;;;11.91;100.00;97919.00;5036051;28;20682;-80
2023/05/11 04:33:24;;;;;;;1.20;1.10;;;;;;;11.90;100.00;97925.28;5036582;28;20251;-80
2023/05/11 04:35:57;;;;;;;2.00;1.20;;;;;;;11.86;100.00;97918.56;5033258;28;20222;-80
2023/05/11 04:38:24;;;;;;;3.10;1.23;;;;;;;11.92;100.00;97920.72;5032438;28;20266;-80
2023/05/11 04:40:50;;;;;;;1.50;1.30;;;;;;;11.89;100.00;97920.94;5032188;28;20315;-80
2023/05/11 04:43:17;;;;;;;2.30;1.47;;;;;;;11.91;100.00;97921.66;5032232;28;20247;-80
2023/05/11 04:45:47;;;;;;;1.47;1.10;;;;;;;11.90;100.00;97927.94;5032178;28;20235;-80
2023/05/11 04:48:13;;;;;;;1.20;1.07;;;;;;;11.91;100.00;97921.66;5032433;28;20213;-80
2023/05/11 04:50:40;;;;;;;1.73;1.40;;;;;;;11.92;100.00;97926.03;5031855;28;20212;-80
2023/05/11 04:53:08;;;;;;;1.77;1.30;;;;;;;11.93;100.00;97927.69;5031969;28;20239;-80
2023/05/11 04:55:34;;;;;;;3.00;1.50;;;;;;;11.88;100.00;97921.91;5032013;28;20211;-80
2023/05/11 04:58:01;;;;;;;1.50;1.40;;;;;;;11.87;100.00;97928.19;5032064;28;20212;-80
2023/05/11 05:00:27;;;;;;;2.20;1.50;;;;;;;11.89;100.00;97921.81;5031993;28;20219;-80
2023/05/11 05:02:54;;;;;;;1.27;1.17;;;;;;;11.97;100.00;97934.44;5031816;28;20263;-80
2023/05/11 05:05:20;;;;;;;1.37;1.27;;;;;;;11.98;100.00;97936.13;5032210;28;20727;-80
2023/05/11 05:07:47;;;;;;;2.90;1.30;;;;;;;11.95;100.00;97931.06;5032170;28;20215;-80
2023/05/11 05:10:15;;;;;;;1.60;1.27;;;;;;;11.96;100.00;97927.44;5032119;28;20678;-80
2023/05/11 05:12:41;;;;;;;1.60;1.20;;;;;;;11.99;100.00;97928.06;5032129;28;20339;-80
2023/05/11 05:15:12;;;;;;;1.77;1.40;;;;;;;12.00;100.00;97934.22;5031808;28;20210;-80
2023/05/11 05:17:38;;;;;;;1.50;1.20;;;;;;;12.03;100.00;97928.66;5031690;28;20216;-80
2023/05/11 05:20:06;;;;;;;1.47;1.27;;;;;;;12.05;100.00;97932.03;5031748;28;20224;-80
2023/05/11 05:22:33;;;;;;;1.50;1.40;;;;;;;12.06;100.00;97933.72;5032034;28;20209;-80
2023/05/11 05:25:00;;;;;;;2.03;1.43;;;;;;;12.15;100.00;97938.28;5032059;28;20410;-80
2023/05/11 05:27:28;;;;;;;2.47;1.23;;;;;;;12.12;100.00;97938.53;5031812;28;20215;-80
2023/05/11 05:29:54;;;;;;;2.93;1.53;;;;;;;12.20;100.00;97941.44;5031339;28;20206;-80
2023/05/11 05:32:21;;;;;;;1.60;1.50;;;;;;;12.23;100.00;97941.19;5031502;28;20675;-80
2023/05/11 05:34:47;;;;;;;3.27;1.73;;;;;;;12.20;100.00;97942.28;5031501;28;20311;-79
2023/05/11 05:37:14;;;;;;;1.73;1.20;;;;;;;12.24;100.00;97934.94;5032044;28;20211;-80
2023/05/11 05:39:40;;;;;;;2.30;1.67;;;;;;;12.26;100.00;97930.34;5031358;28;20667;-80
2023/05/11 05:42:07;;;;;;;1.60;1.40;;;;;;;12.28;100.00;97939.88;5031629;28;20219;-79
2023/05/11 05:44:34;;;;;;;1.93;1.30;;;;;;;12.32;100.00;97945.75;5031733;28;20240;-80
2023/05/11 05:47:01;;;;;;;1.53;1.30;;;;;;;12.30;100.00;97943.22;5031818;28;20215;-80
2023/05/11 05:49:27;;;;;;;1.30;1.20;;;;;;;12.34;100.00;97949.16;5031568;28;20214;-80
2023/05/11 05:51:54;;;;;;;1.70;1.60;;;;;;;12.37;100.00;97948.91;5031696;28;20211;-80
2023/05/11 05:54:21;;;;;;;1.50;1.30;;;;;;;12.41;100.00;97955.66;5031642;28;20679;-80
2023/05/11 05:56:49;;;;;;;1.83;1.70;;;;;;;12.43;100.00;97953.72;5031317;28;20220;-80
2023/05/11 05:59:15;;;;;;;1.53;1.30;;;;;;;12.46;100.00;97942.88;5031066;28;20218;-80
2023/05/11 06:01:45;;;;;;;2.83;1.50;;;;;;;12.49;100.00;97955.88;5031042;28;20564;-80
2023/05/11 06:04:11;;;;;;;1.57;1.30;;;;;;;12.56;100.00;97943.81;5030937;28;20273;-80
2023/05/11 06:06:38;;;;;;;1.60;1.50;;;;;;;12.59;100.00;97944.41;5031472;28;20213;-80
2023/05/11 06:09:04;;;;;;;1.40;1.30;;;;;;;12.57;100.00;97949.00;5031476;28;20212;-80
2023/05/11 06:11:31;;;;;;;1.80;1.60;;;;;;;12.61;100.00;97946.94;5031233;28;20211;-80
2023/05/11 06:14:00;;;;;;;2.20;1.50;;;;;;;12.57;100.00;97945.50;5031303;28;20236;-80
2023/05/11 06:16:27;;;;;;;1.40;1.30;;;;;;;12.55;100.00;97947.44;5031581;28;20216;-80
2023/05/11 06:18:55;;;;;;;3.57;1.80;;;;;;;12.65;100.00;97956.34;5031133;28;20274;-80
2023/05/11 06:21:22;;;;;;;2.03;1.50;;;;;;;12.57;100.00;97950.78;5030791;28;20627;-80
2023/05/11 06:23:48;;;;;;;3.23;1.77;;;;;;;12.58;100.00;97953.34;5030974;28;20259;-80
2023/05/11 06:26:15;;;;;;;2.23;1.50;;;;;;;12.50;100.00;97960.22;5032800;28;20229;-80
2023/05/11 06:28:41;;;;;;;2.23;1.53;;;;;;;12.50;100.00;97962.84;5034608;28;20235;-80
2023/05/11 06:31:08;;;;;;;2.00;1.57;;;;;;;12.48;100.00;97954.19;5034567;28;20216;-80
2023/05/11 06:33:35;;;;;;;3.33;1.50;;;;;;;12.61;100.00;97949.59;5034595;28;20233;-80
2023/05/11 06:36:05;;;;;;;1.60;1.43;;;;;;;12.60;100.00;97950.56;5034478;28;20204;-80
2023/05/11 06:38:32;;;;;;;2.03;1.60;;;;;;;12.51;100.00;97952.13;5034481;28;20220;-80
2023/05/11 06:40:58;;;;;;;2.07;1.60;;;;;;;12.52;100.00;97952.97;5034080;28;20212;-81
2023/05/11 06:43:25;;;;;;;2.90;1.97;;;;;;;12.52;100.00;97947.66;5034275;28;20224;-80
2023/05/11 06:45:51;;;;;;;3.87;1.60;;;;;;;12.49;100.00;97962.03;5033976;28;20336;-80
2023/05/11 06:48:18;;;;;;;1.60;1.50;;;;;;;12.41;100.00;97963.59;5034265;28;20666;-80
2023/05/11 06:50:45;;;;;;;2.90;1.90;;;;;;;12.43;100.00;97948.41;5033896;28;20215;-80
2023/05/11 06:53:13;;;;;;;2.30;2.00;;;;;;;12.34;100.00;97960.56;5032903;28;20225;-81
2023/05/11 06:55:40;;;;;;;3.13;1.90;;;;;;;12.26;100.00;97964.78;5014080;28;20216;-81
2023/05/11 06:58:06;;;;;;;2.20;1.90;;;;;;;12.28;100.00;97960.25;5014100;28;20220;-80
2023/05/11 07:00:33;;;;;;;2.57;1.97;;;;;;;12.25;100.00;97963.13;5014031;28;20224;-81
2023/05/11 07:02:59;;;;;;;2.10;1.90;;;;;;;12.31;100.00;97966.13;5013841;28;20237;-80
2023/05/11 07:05:26;;;;;;;2.47;1.90;;;;;;;12.27;100.00;97963.81;5014185;28;20255;-81
2023/05/11 07:07:53;;;;;;;2.20;2.00;;;;;;;12.19;100.00;97971.53;5014434;28;20215;-82
2023/05/11 07:10:21;;;;;;;3.43;2.30;;;;;;;12.20;100.00;97973.22;5013780;28;20216;-82
2023/05/11 07:12:47;;;;;;;2.63;2.30;;;;;;;12.21;100.00;97969.59;5014077;28;20573;-81
2023/05/11 07:15:14;;;;;;;2.63;2.30;;;;;;;12.25;100.00;97976.34;5013789;28;20212;-81
2023/05/11 07:17:40;;;;;;;2.83;2.20;;;;;;;12.21;100.00;97983.72;5014087;28;20219;-80
2023/05/11 07:20:08;;;;;;;2.50;2.30;;;;;;;12.22;100.00;97979.25;5013691;28;20573;-80
2023/05/11 07:22:34;;;;;;;2.73;2.23;;;;;;;12.22;100.00;97981.91;5012836;28;21026;-81
2023/05/11 07:25:01;;;;;;;3.83;2.40;;;;;;;12.21;100.00;97981.06;5012126;28;20243;-81
2023/05/11 07:27:30;;;;;;;2.90;2.40;;;;;;;12.15;100.00;97980.69;5012940;28;20230;-81
2023/05/11 07:29:56;;;;;;;2.70;2.30;;;;;;;12.18;100.00;97980.47;5012425;28;20217;-81
2023/05/11 07:32:23;;;;;;;3.27;2.63;;;;;;;12.17;100.00;97984.06;5012553;28;20222;-81
2023/05/11 07:34:49;;;;;;;6.03;4.67;;;;;;;12.23;100.00;97983.59;5012261;28;20231;-81
2023/05/11 07:37:16;;;;;;;2.93;2.57;;;;;;;12.28;100.00;97986.72;5011794;28;20205;-81
2023/05/11 07:39:42;;;;;;;2.97;2.57;;;;;;;12.22;100.00;97981.91;5012530;28;20683;-81
2023/05/11 07:42:08;;;;;;;3.87;2.93;;;;;;;12.30;100.00;97984.81;5012622;28;20680;-81
2023/05/11 07:44:36;;;;;;;3.13;2.50;;;;;;;12.33;100.00;97989.84;5012799;28;20258;-81
2023/05/11 07:47:03;;;;;;;3.63;3.33;;;;;;;12.36;100.00;97990.44;5012559;28;20439;-85
2023/05/11 07:49:29;;;;;;;3.57;2.90;;;;;;;12.32;100.00;97981.06;5013013;28;20281;-85
2023/05/11 07:51:56;;;;;;;5.30;3.30;;;;;;;12.34;100.00;97991.56;5013400;28;20212;-85
2023/05/11 07:54:22;;;;;;;3.53;3.23;;;;;;;12.27;100.00;97985.88;5013205;28;20250;-85
2023/05/11 07:56:50;;;;;;;4.03;3.20;;;;;;;12.24;100.00;97990.56;5013044;28;20206;-86
2023/05/11 07:59:16;;;;;;;5.03;3.50;;;;;;;12.24;100.00;97990.56;5012819;28;20283;-87
2023/05/11 08:01:44;;;;;;;4.80;3.20;;;;;;;12.28;100.00;97986.72;5013232;28;20209;-78
2023/05/11 08:04:11;;;;;;;6.17;3.20;;;;;;;12.28;100.00;97984.09;5012790;28;20242;-82
2023/05/11 08:06:37;;;;;;;4.97;3.37;;;;;;;12.30;100.00;97980.31;5012680;28;20708;-82
2023/05/11 08:09:04;;;;;;;4.03;3.63;;;;;;;12.28;100.00;97982.25;5012967;28;20244;-82
2023/05/11 08:11:31;;;;;;;3.50;3.20;;;;;;;12.33;100.00;97984.53;5012761;28;20240;-75
2023/05/11 08:13:57;;;;;;;3.90;3.50;;;;;;;12.26;100.00;97986.84;5013069;28;20233;-81
2023/05/11 08:16:24;;;;;;;4.33;3.93;;;;;;;12.32;100.00;97977.56;5013612;28;20202;-81
2023/05/11 08:18:51;;;;;;;3.80;3.50;;;;;;;12.34;100.00;97983.59;5013102;28;20216;-81
2023/05/11 08:21:18;;;;;;;4.20;3.47;;;;;;;12.37;100.00;97992.16;5016680;28;20213;-82
2023/05/11 08:23:44;;;;;;;5.23;3.70;;;;;;;12.35;100.00;97983.47;5027414;28;20229;-82
2023/05/11 08:26:11;;;;;;;4.50;3.63;;;;;;;12.43;100.00;97990.81;5023086;28;20229;-83
2023/05/11 08:28:37;;;;;;;4.20;3.80;;;;;;;12.40;100.00;97976.00;5023208;28;20213;-84
2023/05/11 08:31:04;;;;;;;4.43;3.60;;;;;;;12.37;100.00;97988.66;5024460;28;20235;-83
2023/05/11 08:33:31;;;;;;;3.93;3.13;;;;;;;12.42;100.00;97989.13;5013306;28;20330;-83
2023/05/11 08:35:59;;;;;;;3.63;3.17;;;;;;;12.54;100.00;97993.47;5013009;28;20212;-82
2023/05/11 08:38:26;;;;;;;3.93;3.30;;;;;;;12.54;100.00;97974.91;5013125;28;20293;-84
2023/05/11 08:40:52;;;;;;;3.60;3.30;;;;;;;12.58;100.00;97979.00;5012778;28;20209;-84
2023/05/11 08:43:19;;;;;;;5.60;3.33;;;;;;;12.49;100.00;97980.59;5012853;28;20232;-84
2023/05/11 08:45:47;;;;;;;4.97;3.33;;;;;;;12.44;100.00;97981.91;5012555;28;20264;-84
2023/05/11 08:48:16;;;;;;;4.13;3.27;;;;;;;12.47;100.00;97990.44;5012350;28;20223;-84
2023/05/11 08:50:43;;;;;;;5.63;3.47;;;;;;;12.40;100.00;97981.28;5012439;28;20304;-84
2023/05/11 08:53:11;;;;;;;3.90;3.60;;;;;;;12.40;100.00;97983.13;5012460;28;20716;-84
2023/05/11 08:55:39;;;;;;;5.13;3.30;;;;;;;12.50;100.00;97986.72;5012229;28;20223;-81
2023/05/11 08:58:06;;;;;;;3.80;3.40;;;;;;;12.42;100.00;97983.84;5012854;28;20209;-82
2023/05/11 09:00:33;;;;;;;3.50;3.20;;;;;;;12.41;100.00;97993.59;5012144;28;20683;-82
2023/05/11 09:03:01;;;;;;;9.80;5.30;;;;;;;12.42;100.00;97989.97;5030014;22;20745;-81
2023/05/11 09:05:27;;;;;;;3.60;3.30;;;;;;;12.46;100.00;97990.59;5051029;28;20321;-82
2023/05/11 09:07:59;;;;;;;4.90;3.30;;;;;;;12.48;100.00;97988.66;5051632;28;20208;-81
2023/05/11 09:10:27;;;;;;;3.87;2.90;;;;;;;12.48;100.00;97989.47;5051259;28;20222;-82
2023/05/11 09:12:53;;;;;;;4.43;3.50;;;;;;;12.51;100.00;97983.94;5052413;28;20221;-81
2023/05/11 09:15:20;;;;;;;4.37;3.30;;;;;;;12.48;100.00;97984.19;5071360;28;20203;-81
2023/05/11 09:17:47;;;;;;;3.30;3.00;;;;;;;12.44;100.00;97988.06;5071271;28;20206;-81
2023/05/11 09:20:13;;;;;;;3.67;3.13;;;;;;;12.50;100.00;97987.56;5071193;28;20221;-81
2023/05/11 09:22:44;;;;;;;3.70;3.23;;;;;;;12.57;100.00;97983.47;5071375;28;20218;-81
2023/05/11 09:25:12;;;;;;;4.53;2.80;;;;;;;12.55;100.00;97987.19;5071316;28;20214;-81
2023/05/11 09:27:42;;;;;;;4.50;3.20;;;;;;;12.49;100.00;97985.88;5071186;28;20754;-81
2023/05/11 09:30:14;;;;;;;4.73;3.17;;;;;;;12.47;100.00;97982.50;5071047;28;20293;-82
2023/05/11 09:32:48;;;;;;;3.23;2.93;;;;;;;12.42;100.00;97987.31;5071136;28;20214;-81
2023/05/11 09:35:26;;;;;;;4.33;3.00;;;;;;;12.40;100.00;97988.44;5071226;28;20214;-82
2023/05/11 09:38:05;;;;;;;2.90;2.70;;;;;;;12.48;100.00;97988.66;5071448;28;20667;-81
2023/05/11 09:40:33;;;;;;;3.57;2.90;;;;;;;12.46;100.00;97990.59;5070693;28;20229;-80
2023/05/11 09:43:02;;;;;;;3.37;2.57;;;;;;;12.51;100.00;97993.69;5071602;28;20214;-81
2023/05/11 09:45:36;;;;;;;4.30;2.87;;;;;;;12.53;100.00;97986.50;5071162;28;20206;-81
2023/05/11 09:48:03;;;;;;;4.40;3.00;;;;;;;12.54;100.00;97983.69;5071049;28;20213;-81
2023/05/11 09:50:33;;;;;;;4.13;3.10;;;;;;;12.56;100.00;97980.94;5070625;28;20257;-80
2023/05/11 09:52:59;;;;;;;3.63;2.67;;;;;;;12.57;100.00;97979.97;5071080;28;20520;-81
2023/05/11 09:55:26;;;;;;;4.43;2.73;;;;;;;12.52;100.00;97985.63;5071287;28;20315;-82
2023/05/11 09:57:54;;;;;;;4.13;2.80;;;;;;;12.62;100.00;97983.09;5071123;28;20225;-79
2023/05/11 10:00:24;;;;;;;3.97;3.10;;;;;;;12.65;100.00;97981.03;5071799;28;20210;-80
2023/05/11 10:03:00;;;;;;;4.33;3.00;;;;;;;12.69;100.00;97978.97;5084059;28;20681;-81
2023/05/11 10:05:26;;;;;;;3.10;2.70;;;;;;;12.68;100.00;97985.25;5094416;28;20257;-81
2023/05/11 10:07:57;;;;;;;4.50;3.23;;;;;;;12.61;100.00;97987.56;5092450;28;20215;-81
2023/05/11 10:10:26;;;;;;;4.70;3.30;;;;;;;12.69;100.00;97976.34;5073807;28;20607;-83
2023/05/11 10:12:54;;;;;;;4.23;2.70;;;;;;;12.64;100.00;97983.81;5075844;28;20211;-81
2023/05/11 10:15:25;;;;;;;4.00;2.60;;;;;;;12.57;100.00;97980.81;5075801;28;20208;-83
2023/05/11 10:17:53;;;;;;;3.50;2.90;;;;;;;12.57;100.00;97982.59;5074948;28;20204;-82
2023/05/11 10:20:21;;;;;;;3.63;3.23;;;;;;;12.56;100.00;97988.88;5073459;28;20215;-81
2023/05/11 10:22:48;;;;;;;3.20;2.77;;;;;;;12.58;100.00;97982.50;5070163;28;20358;-82
2023/05/11 10:25:15;;;;;;;3.80;3.00;;;;;;;12.71;100.00;97974.41;5073415;28;20204;-82
2023/05/11 10:27:42;;;;;;;3.37;3.07;;;;;;;12.66;100.00;97981.91;5073577;28;20238;-82
2023/05/11 10:30:10;;;;;;;3.30;2.80;;;;;;;12.60;100.00;97977.09;5072883;28;20210;-83
2023/05/11 10:32:39;;;;;;;2.70;2.50;;;;;;;12.56;100.00;97986.22;5072970;28;20527;-82
2023/05/11 10:35:07;;;;;;;5.90;3.20;;;;;;;12.55;100.00;97984.56;5073445;28;20231;-82
2023/05/11 10:37:33;;;;;;;3.27;2.97;;;;;;;12.49;100.00;97975.28;5074146;28;20223;-81
2023/05/11 10:40:00;;;;;;;3.57;3.27;;;;;;;12.49;100.00;97975.28;5073955;28;20211;-82
2023/05/11 10:42:59;;;;;;;4.33;2.90;;;;;;;12.55;100.00;97974.81;5074298;28;20232;-82
2023/05/11 10:45:29;;;;;;;3.50;3.03;;;;;;;12.54;100.00;97986.34;5074231;28;20218;-82
2023/05/11 10:48:22;;;;;;;3.73;2.90;;;;;;;12.56;100.00;97981.78;5074030;28;20213;-82
2023/05/11 10:51:12;;;;;;;4.10;3.60;;;;;;;12.53;100.00;97970.59;5070120;28;20453;-82
2023/05/11 10:53:54;;;;;;;5.40;3.70;;;;;;;12.65;100.00;97972.25;5073561;28;20438;-83
2023/05/11 10:56:34;;;;;;;3.20;2.83;;;;;;;12.68;100.00;97972.00;5074146;28;20916;-79
2023/05/11 10:59:32;;;;;;;3.40;3.00;;;;;;;12.70;100.00;97972.72;5073864;28;20209;-81
2023/05/11 11:02:00;;;;;;;2.67;2.30;;;;;;;12.66;100.00;97965.97;5074155;28;20218;-81
2023/05/11 11:04:42;;;;;;;3.00;2.70;;;;;;;12.57;100.00;97967.56;5073700;28;20243;-84
2023/05/11 11:07:10;;;;;;;3.33;2.40;;;;;;;12.48;100.00;97962.97;5073938;28;20231;-81
2023/05/11 11:09:59;;;;;;;4.23;2.00;;;;;;;12.44;100.00;97966.00;5073471;28;20537;-82
2023/05/11 11:12:26;;;;;;;3.50;2.30;;;;;;;12.49;100.00;97958.53;5066156;28;20214;-81
2023/05/11 11:14:55;;;;;;;3.40;2.57;;;;;;;12.50;100.00;97960.22;5073211;28;20230;-82
2023/05/11 11:17:23;;;;;;;3.73;2.40;;;;;;;12.51;100.00;97957.44;5070848;28;20210;-82
2023/05/11 11:19:51;;;;;;;2.60;2.40;;;;;;;12.53;100.00;97960.81;5070569;28;20297;-83
2023/05/11 11:22:45;;;;;;;2.77;2.53;;;;;;;12.69;100.00;97963.06;5070771;28;20685;-82
2023/05/11 11:25:13;;;;;;;4.10;2.80;;;;;;;12.76;100.00;97958.94;5073634;28;20237;-82
2023/05/11 11:27:58;;;;;;;3.00;1.90;;;;;;;12.91;100.00;97955.91;5073231;28;20225;-82
2023/05/11 11:30:27;;;;;;;2.47;2.20;;;;;;;12.83;100.00;97962.81;5070587;28;20738;-83
2023/05/11 11:32:55;;;;;;;2.57;2.10;;;;;;;12.81;100.00;97965.59;5070891;28;20582;-83